sensor_id;sensor_type;location;lat;lon;timestamp;pressure;altitude;pressure_sealevel;temperature;humidity
68226;BME280;55045;49.410;11.030;2023-05-19T00:01:51;98651.47;;;9.34;100.00
68226;BME280;55045;49.410;11.030;2023-05-19T00:04:56;98641.38;;;9.50;100.00
68226;BME280;55045;49.410;11.030;2023-05-19T00:08:01;98652.56;;;9.52;100.00
68226;BME280;55045;49.410;11.030;2023-05-19T00:11:06;98652.97;;;9.40;100.00
68226;BME280;55045;49.410;11.030;2023-05-19T00:14:10;98648.28;;;9.51;100.00
68226;BME280;55045;49.410;11.030;2023-05-19T00:17:14;98648.66;;;9.40;100.00
68226;BME280;55045;49.410;11.030;2023-05-19T00:20:18;98638.66;;;9.55;100.00
68226;BME280;55045;49.410;11.030;2023-05-19T00:23:22;98644.34;;;9.41;100.00
68226;BME280;55045;49.410;11.030;2023-05-19T00:26:26;98637.94;;;9.51;100.00
68226;BME280;55045;49.410;11.030;2023-05-19T00:29:35;98642.59;;;9.41;100.00
68226;BME280;55045;49.410;11.030;2023-05-19T00:32:39;98637.34;;;9.43;100.00
68226;BME280;55045;49.410;11.030;2023-05-19T00:35:42;98637.50;;;9.38;100.00
68226;BME280;55045;49.410;11.030;2023-05-19T00:38:47;98631.41;;;9.39;100.00
68226;BME280;55045;49.410;11.030;2023-05-19T00:41:52;98635.03;;;9.35;100.00
68226;BME280;55045;49.410;11.030;2023-05-19T00:44:55;98625.56;;;9.34;100.00
68226;BME280;55045;49.410;11.030;2023-05-19T00:47:58;98629.13;;;9.32;100.00
68226;BME280;55045;49.410;11.030;2023-05-19T00:51:02;98627.00;;;9.43;100.00
68226;BME280;55045;49.410;11.030;2023-05-19T00:54:09;98621.41;;;9.30;100.00
68226;BME280;55045;49.410;11.030;2023-05-19T00:57:13;98622.19;;;9.32;100.00
68226;BME280;55045;49.410;11.030;2023-05-19T01:00:17;98620.34;;;9.36;100.00
68226;BME280;55045;49.410;11.030;2023-05-19T01:03:21;98617.88;;;9.33;100.00
68226;BME280;55045;49.410;11.030;2023-05-19T01:06:24;98616.31;;;9.27;100.00
68226;BME280;55045;49.410;11.030;2023-05-19T01:09:30;98607.59;;;9.30;100.00
68226;BME280;55045;49.410;11.030;2023-05-19T01:12:35;98602.00;;;9.17;100.00
68226;BME280;55045;49.410;11.030;2023-05-19T01:15:55;98602.53;;;9.27;100.00
68226;BME280;55045;49.410;11.030;2023-05-19T01:19:04;98597.69;;;9.17;100.00
68226;BME280;55045;49.410;11.030;2023-05-19T01:22:23;98601.41;;;9.10;100.00
68226;BME280;55045;49.410;11.030;2023-05-19T01:26:03;98597.69;;;9.42;100.00
68226;BME280;55045;49.410;11.030;2023-05-19T01:29:21;98596.47;;;9.28;100.00
68226;BME280;55045;49.410;11.030;2023-05-19T01:32:32;98508.38;;;8.82;100.00
68226;BME280;55045;49.410;11.030;2023-05-19T01:35:37;98591.47;;;9.23;100.00
68226;BME280;55045;49.410;11.030;2023-05-19T01:38:42;98595.28;;;9.36;100.00
68226;BME280;55045;49.410;11.030;2023-05-19T01:41:46;98591.47;;;9.23;100.00
68226;BME280;55045;49.410;11.030;2023-05-19T01:44:51;98591.66;;;9.17;100.00
68226;BME280;55045;49.410;11.030;2023-05-19T01:47:58;98599.78;;;9.06;100.00
68226;BME280;55045;49.410;11.030;2023-05-19T01:51:01;98594.84;;;9.00;100.00
68226;BME280;55045;49.410;11.030;2023-05-19T01:54:05;98590.53;;;9.01;100.00
68226;BME280;55045;49.410;11.030;2023-05-19T01:57:14;98593.28;;;9.19;100.00
68226;BME280;55045;49.410;11.030;2023-05-19T02:00:25;98600.59;;;9.08;100.00
68226;BME280;55045;49.410;11.030;2023-05-19T02:03:41;98598.63;;;9.15;100.00
68226;BME280;55045;49.410;11.030;2023-05-19T02:06:54;98603.75;;;8.91;100.00
68226;BME280;55045;49.410;11.030;2023-05-19T02:10:05;98602.56;;;8.75;100.00
68226;BME280;55045;49.410;11.030;2023-05-19T02:13:10;98602.13;;;8.89;100.00
68226;BME280;55045;49.410;11.030;2023-05-19T02:16:16;98601.06;;;8.94;100.00
68226;BME280;55045;49.410;11.030;2023-05-19T02:19:23;98520.53;;;8.80;100.00
68226;BME280;55045;49.410;11.030;2023-05-19T02:22:29;98600.31;;;9.41;100.00
68226;BME280;55045;49.410;11.030;2023-05-19T02:25:32;98598.53;;;8.93;100.00
68226;BME280;55045;49.410;11.030;2023-05-19T02:28:36;98584.88;;;8.89;100.00
68226;BME280;55045;49.410;11.030;2023-05-19T02:31:39;98587.63;;;9.10;100.00
68226;BME280;55045;49.410;11.030;2023-05-19T02:34:46;98590.00;;;8.91;100.00
68226;BME280;55045;49.410;11.030;2023-05-19T02:37:49;98591.78;;;8.89;100.00
68226;BME280;55045;49.410;11.030;2023-05-19T02:40:53;98570.59;;;8.78;100.00
68226;BME280;55045;49.410;11.030;2023-05-19T02:43:56;98570.09;;;9.41;100.00
68226;BME280;55045;49.410;11.030;2023-05-19T02:46:59;98564.66;;;9.01;100.00
68226;BME280;55045;49.410;11.030;2023-05-19T02:50:06;98575.31;;;8.91;100.00
68226;BME280;55045;49.410;11.030;2023-05-19T02:53:09;98568.53;;;8.87;100.00
68226;BME280;55045;49.410;11.030;2023-05-19T02:56:13;98583.75;;;8.72;100.00
68226;BME280;55045;49.410;11.030;2023-05-19T02:59:16;98566.22;;;9.05;100.00
68226;BME280;55045;49.410;11.030;2023-05-19T03:02:19;98564.06;;;8.92;100.00
68226;BME280;55045;49.410;11.030;2023-05-19T03:05:24;98567.06;;;8.80;100.00
68226;BME280;55045;49.410;11.030;2023-05-19T03:08:28;98565.06;;;9.37;100.00
68226;BME280;55045;49.410;11.030;2023-05-19T03:11:31;98563.69;;;9.03;100.00
68226;BME280;55045;49.410;11.030;2023-05-19T03:14:34;98569.22;;;9.17;100.00
68226;BME280;55045;49.410;11.030;2023-05-19T03:17:39;98564.00;;;8.94;100.00
68226;BME280;55045;49.410;11.030;2023-05-19T03:20:45;98570.88;;;9.20;100.00
68226;BME280;55045;49.410;11.030;2023-05-19T03:23:48;98573.69;;;8.87;100.00
68226;BME280;55045;49.410;11.030;2023-05-19T03:26:51;98583.31;;;8.84;100.00
68226;BME280;55045;49.410;11.030;2023-05-19T03:29:55;98578.38;;;9.03;100.00
68226;BME280;55045;49.410;11.030;2023-05-19T03:34:34;98581.00;;;9.01;100.00
68226;BME280;55045;49.410;11.030;2023-05-19T03:37:37;98584.94;;;8.86;100.00
68226;BME280;55045;49.410;11.030;2023-05-19T03:40:41;98583.59;;;9.01;100.00
68226;BME280;55045;49.410;11.030;2023-05-19T03:43:45;98583.00;;;8.93;100.00
68226;BME280;55045;49.410;11.030;2023-05-19T03:46:49;98584.06;;;8.87;100.00
68226;BME280;55045;49.410;11.030;2023-05-19T03:50:25;98584.41;;;9.27;100.00
68226;BME280;55045;49.410;11.030;2023-05-19T03:53:36;98594.41;;;8.87;100.00
68226;BME280;55045;49.410;11.030;2023-05-19T03:56:39;98592.41;;;8.95;100.00
68226;BME280;55045;49.410;11.030;2023-05-19T03:59:43;98589.22;;;8.87;100.00
68226;BME280;55045;49.410;11.030;2023-05-19T04:02:46;98598.16;;;8.79;100.00
68226;BME280;55045;49.410;11.030;2023-05-19T04:05:51;98604.44;;;8.97;100.00
68226;BME280;55045;49.410;11.030;2023-05-19T04:08:55;98601.44;;;8.84;100.00
68226;BME280;55045;49.410;11.030;2023-05-19T04:11:58;98604.66;;;8.90;100.00
68226;BME280;55045;49.410;11.030;2023-05-19T04:15:02;98600.19;;;9.44;100.00
68226;BME280;55045;49.410;11.030;2023-05-19T04:18:06;98596.19;;;8.85;100.00
68226;BME280;55045;49.410;11.030;2023-05-19T04:21:11;98590.66;;;8.96;100.00
68226;BME280;55045;49.410;11.030;2023-05-19T04:24:14;98600.22;;;8.94;100.00
68226;BME280;55045;49.410;11.030;2023-05-19T04:27:17;98599.38;;;8.93;100.00
68226;BME280;55045;49.410;11.030;2023-05-19T04:30:22;98600.94;;;8.98;100.00
68226;BME280;55045;49.410;11.030;2023-05-19T04:33:26;98604.25;;;9.03;100.00
68226;BME280;55045;49.410;11.030;2023-05-19T04:36:31;98605.34;;;9.20;100.00
68226;BME280;55045;49.410;11.030;2023-05-19T04:39:36;98602.78;;;9.20;100.00
68226;BME280;55045;49.410;11.030;2023-05-19T04:42:42;98606.22;;;9.19;100.00
68226;BME280;55045;49.410;11.030;2023-05-19T04:45:47;98601.22;;;9.15;100.00
68226;BME280;55045;49.410;11.030;2023-05-19T04:48:53;98603.38;;;9.27;100.00
68226;BME280;55045;49.410;11.030;2023-05-19T04:52:00;98603.56;;;9.46;100.00
68226;BME280;55045;49.410;11.030;2023-05-19T04:55:05;98601.03;;;9.44;100.00
68226;BME280;55045;49.410;11.030;2023-05-19T04:58:09;98594.31;;;9.64;100.00
68226;BME280;55045;49.410;11.030;2023-05-19T05:01:13;98596.66;;;9.70;100.00
68226;BME280;55045;49.410;11.030;2023-05-19T05:04:17;98594.75;;;9.75;100.00
68226;BME280;55045;49.410;11.030;2023-05-19T05:07:21;98592.38;;;9.69;100.00
68226;BME280;55045;49.410;11.030;2023-05-19T05:10:26;98593.91;;;9.74;100.00
68226;BME280;55045;49.410;11.030;2023-05-19T05:13:30;98590.00;;;9.86;100.00
68226;BME280;55045;49.410;11.030;2023-05-19T05:16:35;98586.84;;;10.01;100.00
68226;BME280;55045;49.410;11.030;2023-05-19T05:19:40;98585.81;;;10.05;100.00
68226;BME280;55045;49.410;11.030;2023-05-19T05:22:46;98585.69;;;10.32;100.00
68226;BME280;55045;49.410;11.030;2023-05-19T05:25:51;98585.91;;;10.26;100.00
68226;BME280;55045;49.410;11.030;2023-05-19T05:28:54;98557.19;;;10.08;100.00
68226;BME280;55045;49.410;11.030;2023-05-19T05:31:58;98569.13;;;10.13;100.00
68226;BME280;55045;49.410;11.030;2023-05-19T05:35:02;98580.91;;;10.43;100.00
68226;BME280;55045;49.410;11.030;2023-05-19T05:38:07;98578.19;;;10.46;100.00
68226;BME280;55045;49.410;11.030;2023-05-19T05:41:12;98581.97;;;10.59;100.00
68226;BME280;55045;49.410;11.030;2023-05-19T05:44:15;98589.41;;;10.47;100.00
68226;BME280;55045;49.410;11.030;2023-05-19T05:47:20;98595.06;;;10.56;100.00
68226;BME280;55045;49.410;11.030;2023-05-19T05:50:23;98584.63;;;10.78;100.00
68226;BME280;55045;49.410;11.030;2023-05-19T05:53:30;98570.84;;;10.98;100.00
68226;BME280;55045;49.410;11.030;2023-05-19T05:56:39;98568.94;;;11.02;100.00
68226;BME280;55045;49.410;11.030;2023-05-19T05:59:43;98584.72;;;10.97;100.00
68226;BME280;55045;49.410;11.030;2023-05-19T06:02:49;98593.41;;;10.96;100.00
68226;BME280;55045;49.410;11.030;2023-05-19T06:06:01;98587.03;;;10.83;100.00
68226;BME280;55045;49.410;11.030;2023-05-19T06:09:06;98583.34;;;11.29;100.00
68226;BME280;55045;49.410;11.030;2023-05-19T06:12:09;98586.53;;;10.95;100.00
68226;BME280;55045;49.410;11.030;2023-05-19T06:15:18;98587.16;;;11.20;100.00
68226;BME280;55045;49.410;11.030;2023-05-19T06:18:25;98585.09;;;11.08;100.00
68226;BME280;55045;49.410;11.030;2023-05-19T06:21:28;98577.81;;;11.37;100.00
68226;BME280;55045;49.410;11.030;2023-05-19T06:24:33;98580.81;;;11.28;100.00
68226;BME280;55045;49.410;11.030;2023-05-19T06:27:42;98577.66;;;11.40;100.00
68226;BME280;55045;49.410;11.030;2023-05-19T06:30:48;98579.50;;;11.38;100.00
68226;BME280;55045;49.410;11.030;2023-05-19T06:33:57;98581.69;;;11.47;100.00
68226;BME280;55045;49.410;11.030;2023-05-19T06:37:00;98585.28;;;11.44;100.00
68226;BME280;55045;49.410;11.030;2023-05-19T06:40:08;98582.16;;;11.36;100.00
68226;BME280;55045;49.410;11.030;2023-05-19T06:43:13;98588.66;;;11.65;100.00
68226;BME280;55045;49.410;11.030;2023-05-19T06:46:42;98586.53;;;11.73;100.00
68226;BME280;55045;49.410;11.030;2023-05-19T06:49:46;98584.56;;;11.60;100.00
68226;BME280;55045;49.410;11.030;2023-05-19T06:52:51;98583.59;;;11.62;100.00
68226;BME280;55045;49.410;11.030;2023-05-19T06:55:56;98576.53;;;12.03;100.00
68226;BME280;55045;49.410;11.030;2023-05-19T06:59:08;98584.47;;;12.00;100.00
68226;BME280;55045;49.410;11.030;2023-05-19T07:02:12;98580.03;;;11.83;100.00
68226;BME280;55045;49.410;11.030;2023-05-19T07:05:17;98582.06;;;12.15;100.00
68226;BME280;55045;49.410;11.030;2023-05-19T07:08:26;98569.28;;;12.46;100.00
68226;BME280;55045;49.410;11.030;2023-05-19T07:11:31;98573.59;;;12.47;100.00
68226;BME280;55045;49.410;11.030;2023-05-19T07:14:36;98565.16;;;12.42;100.00
68226;BME280;55045;49.410;11.030;2023-05-19T07:17:40;98559.06;;;12.24;100.00
68226;BME280;55045;49.410;11.030;2023-05-19T07:20:44;98490.31;;;12.30;100.00
68226;BME280;55045;49.410;11.030;2023-05-19T07:23:47;98553.97;;;13.60;100.00
68226;BME280;55045;49.410;11.030;2023-05-19T07:26:52;98553.03;;;13.76;98.25
68226;BME280;55045;49.410;11.030;2023-05-19T07:29:55;98543.91;;;14.01;98.43
68226;BME280;55045;49.410;11.030;2023-05-19T07:32:59;98545.50;;;14.03;98.06
68226;BME280;55045;49.410;11.030;2023-05-19T07:36:02;98534.41;;;14.00;97.07
68226;BME280;55045;49.410;11.030;2023-05-19T07:39:06;98547.00;;;14.23;95.99
68226;BME280;55045;49.410;11.030;2023-05-19T07:42:11;98539.59;;;14.16;96.19
68226;BME280;55045;49.410;11.030;2023-05-19T07:45:14;98540.50;;;14.15;95.75
68226;BME280;55045;49.410;11.030;2023-05-19T07:48:17;98535.91;;;14.04;97.26
68226;BME280;55045;49.410;11.030;2023-05-19T07:51:23;98530.59;;;14.05;99.93
68226;BME280;55045;49.410;11.030;2023-05-19T07:54:26;98531.38;;;14.53;95.69
68226;BME280;55045;49.410;11.030;2023-05-19T07:57:32;98539.63;;;14.61;97.06
68226;BME280;55045;49.410;11.030;2023-05-19T08:00:36;98527.75;;;14.56;97.26
68226;BME280;55045;49.410;11.030;2023-05-19T08:03:39;98540.63;;;14.43;97.42
68226;BME280;55045;49.410;11.030;2023-05-19T08:06:43;98527.66;;;14.11;100.00
68226;BME280;55045;49.410;11.030;2023-05-19T08:09:46;98511.81;;;14.15;99.61
68226;BME280;55045;49.410;11.030;2023-05-19T08:12:50;98522.09;;;14.02;100.00
68226;BME280;55045;49.410;11.030;2023-05-19T08:15:54;98522.59;;;13.77;100.00
68226;BME280;55045;49.410;11.030;2023-05-19T08:19:00;98516.88;;;13.86;100.00
68226;BME280;55045;49.410;11.030;2023-05-19T08:22:06;98524.44;;;13.75;100.00
68226;BME280;55045;49.410;11.030;2023-05-19T08:25:09;98515.34;;;13.98;100.00
68226;BME280;55045;49.410;11.030;2023-05-19T08:28:14;98525.84;;;14.28;100.00
68226;BME280;55045;49.410;11.030;2023-05-19T08:31:17;98526.31;;;14.04;100.00
68226;BME280;55045;49.410;11.030;2023-05-19T08:34:21;98524.41;;;14.54;100.00
68226;BME280;55045;49.410;11.030;2023-05-19T08:37:24;98520.31;;;14.18;100.00
68226;BME280;55045;49.410;11.030;2023-05-19T08:40:27;98513.34;;;14.03;99.52
68226;BME280;55045;49.410;11.030;2023-05-19T08:43:34;98504.09;;;14.13;99.57
68226;BME280;55045;49.410;11.030;2023-05-19T08:46:37;98511.06;;;13.97;98.96
68226;BME280;55045;49.410;11.030;2023-05-19T08:49:43;98500.22;;;13.89;98.66
68226;BME280;55045;49.410;11.030;2023-05-19T08:52:51;98460.38;;;13.87;97.35
68226;BME280;55045;49.410;11.030;2023-05-19T08:55:57;98500.72;;;13.95;98.40
68226;BME280;55045;49.410;11.030;2023-05-19T08:59:05;98496.72;;;13.90;98.39
68226;BME280;55045;49.410;11.030;2023-05-19T09:02:10;98506.72;;;14.43;97.55
68226;BME280;55045;49.410;11.030;2023-05-19T09:05:16;98498.88;;;14.43;98.26
68226;BME280;55045;49.410;11.030;2023-05-19T09:08:20;98501.00;;;14.52;96.33
68226;BME280;55045;49.410;11.030;2023-05-19T09:11:23;98504.31;;;14.08;96.75
68226;BME280;55045;49.410;11.030;2023-05-19T09:14:28;98507.34;;;14.32;98.21
68226;BME280;55045;49.410;11.030;2023-05-19T09:17:32;98496.16;;;14.30;97.16
68226;BME280;55045;49.410;11.030;2023-05-19T09:20:36;98503.91;;;14.16;96.87
68226;BME280;55045;49.410;11.030;2023-05-19T09:23:45;98511.16;;;14.11;98.39
68226;BME280;55045;49.410;11.030;2023-05-19T09:26:49;98491.47;;;14.21;99.77
68226;BME280;55045;49.410;11.030;2023-05-19T09:29:54;98503.16;;;14.14;99.73
68226;BME280;55045;49.410;11.030;2023-05-19T09:34:33;98501.06;;;14.21;98.15
68226;BME280;55045;49.410;11.030;2023-05-19T09:37:42;98508.88;;;13.89;96.87
68226;BME280;55045;49.410;11.030;2023-05-19T09:40:47;98506.94;;;14.08;97.88
68226;BME280;55045;49.410;11.030;2023-05-19T09:43:53;98503.84;;;14.02;98.12
68226;BME280;55045;49.410;11.030;2023-05-19T09:46:57;98501.63;;;14.26;98.11
68226;BME280;55045;49.410;11.030;2023-05-19T09:50:03;98499.44;;;14.18;96.54
68226;BME280;55045;49.410;11.030;2023-05-19T09:53:07;98495.09;;;13.87;96.97
68226;BME280;55045;49.410;11.030;2023-05-19T09:56:13;98493.47;;;14.16;96.73
68226;BME280;55045;49.410;11.030;2023-05-19T09:59:17;98482.91;;;14.33;96.04
68226;BME280;55045;49.410;11.030;2023-05-19T10:02:22;98482.09;;;14.63;96.01
68226;BME280;55045;49.410;11.030;2023-05-19T10:05:28;98477.16;;;14.43;96.10
68226;BME280;55045;49.410;11.030;2023-05-19T10:08:32;98482.09;;;14.63;95.37
68226;BME280;55045;49.410;11.030;2023-05-19T10:11:37;98480.72;;;14.72;94.79
68226;BME280;55045;49.410;11.030;2023-05-19T10:14:41;98470.28;;;14.86;94.83
68226;BME280;55045;49.410;11.030;2023-05-19T10:17:45;98468.50;;;14.86;94.16
68226;BME280;55045;49.410;11.030;2023-05-19T10:20:51;98460.63;;;14.58;93.79
68226;BME280;55045;49.410;11.030;2023-05-19T10:23:54;98455.72;;;15.10;93.30
68226;BME280;55045;49.410;11.030;2023-05-19T10:27:02;98444.81;;;14.89;92.87
68226;BME280;55045;49.410;11.030;2023-05-19T10:30:09;98441.75;;;15.25;92.07
68226;BME280;55045;49.410;11.030;2023-05-19T10:33:18;98440.16;;;14.94;91.20
68226;BME280;55045;49.410;11.030;2023-05-19T10:36:36;98431.94;;;14.86;91.68
68226;BME280;55045;49.410;11.030;2023-05-19T10:39:42;98436.09;;;15.46;91.85
68226;BME280;55045;49.410;11.030;2023-05-19T10:42:55;98435.91;;;15.49;92.48
68226;BME280;55045;49.410;11.030;2023-05-19T10:46:00;98435.94;;;15.20;91.52
68226;BME280;55045;49.410;11.030;2023-05-19T10:49:03;98436.22;;;15.30;91.17
68226;BME280;55045;49.410;11.030;2023-05-19T10:52:20;98430.94;;;15.59;88.90
68226;BME280;55045;49.410;11.030;2023-05-19T10:55:43;98428.22;;;15.74;90.04
68226;BME280;55045;49.410;11.030;2023-05-19T10:58:49;98434.03;;;15.51;87.59
68226;BME280;55045;49.410;11.030;2023-05-19T11:01:53;98429.84;;;15.48;90.11
68226;BME280;55045;49.410;11.030;2023-05-19T11:05:06;98426.25;;;15.78;90.54
68226;BME280;55045;49.410;11.030;2023-05-19T11:08:16;98428.28;;;15.32;89.44
68226;BME280;55045;49.410;11.030;2023-05-19T11:11:19;98430.97;;;15.44;90.63
68226;BME280;55045;49.410;11.030;2023-05-19T11:14:25;98426.13;;;15.38;88.94
68226;BME280;55045;49.410;11.030;2023-05-19T11:17:29;98419.63;;;15.58;88.91
68226;BME280;55045;49.410;11.030;2023-05-19T11:20:37;98421.25;;;16.15;87.55
68226;BME280;55045;49.410;11.030;2023-05-19T11:23:42;98429.50;;;16.21;87.92
68226;BME280;55045;49.410;11.030;2023-05-19T11:26:45;98428.53;;;15.82;87.99
68226;BME280;55045;49.410;11.030;2023-05-19T11:29:49;98425.00;;;16.23;87.10
68226;BME280;55045;49.410;11.030;2023-05-19T11:32:53;98410.81;;;16.53;86.53
68226;BME280;55045;49.410;11.030;2023-05-19T11:35:57;98417.03;;;16.12;86.09
68226;BME280;55045;49.410;11.030;2023-05-19T11:39:01;98405.66;;;16.26;86.47
68226;BME280;55045;49.410;11.030;2023-05-19T11:42:07;98372.25;;;16.42;86.14
68226;BME280;55045;49.410;11.030;2023-05-19T11:45:11;98405.69;;;16.51;84.33
68226;BME280;55045;49.410;11.030;2023-05-19T11:48:14;98400.44;;;16.64;86.75
68226;BME280;55045;49.410;11.030;2023-05-19T11:51:20;98390.41;;;16.58;84.08
68226;BME280;55045;49.410;11.030;2023-05-19T11:54:30;98380.78;;;16.71;84.75
68226;BME280;55045;49.410;11.030;2023-05-19T11:57:34;98369.56;;;16.56;83.29
68226;BME280;55045;49.410;11.030;2023-05-19T12:00:39;98371.97;;;16.85;84.00
68226;BME280;55045;49.410;11.030;2023-05-19T12:03:42;98355.59;;;17.07;83.75
68226;BME280;55045;49.410;11.030;2023-05-19T12:06:47;98356.75;;;17.03;80.33
68226;BME280;55045;49.410;11.030;2023-05-19T12:09:53;98365.09;;;17.44;81.29
68226;BME280;55045;49.410;11.030;2023-05-19T12:12:57;98354.22;;;17.62;82.32
68226;BME280;55045;49.410;11.030;2023-05-19T12:16:02;98358.72;;;17.12;82.00
68226;BME280;55045;49.410;11.030;2023-05-19T12:19:07;98348.22;;;17.12;81.85
68226;BME280;55045;49.410;11.030;2023-05-19T12:22:11;98362.00;;;17.87;80.95
68226;BME280;55045;49.410;11.030;2023-05-19T12:25:16;98347.47;;;17.94;79.25
68226;BME280;55045;49.410;11.030;2023-05-19T12:28:20;98352.31;;;18.11;80.84
68226;BME280;55045;49.410;11.030;2023-05-19T12:31:23;98351.50;;;18.22;80.11
68226;BME280;55045;49.410;11.030;2023-05-19T12:34:27;98349.59;;;17.78;79.06
68226;BME280;55045;49.410;11.030;2023-05-19T12:37:32;98344.25;;;18.59;79.13
68226;BME280;55045;49.410;11.030;2023-05-19T12:40:38;98335.50;;;17.79;77.97
68226;BME280;55045;49.410;11.030;2023-05-19T12:43:42;98340.13;;;18.10;80.29
68226;BME280;55045;49.410;11.030;2023-05-19T12:46:45;98340.03;;;18.23;79.38
68226;BME280;55045;49.410;11.030;2023-05-19T12:49:54;98327.50;;;18.16;79.85
68226;BME280;55045;49.410;11.030;2023-05-19T12:52:58;98331.72;;;17.94;80.24
68226;BME280;55045;49.410;11.030;2023-05-19T12:56:09;98331.59;;;18.42;77.20
68226;BME280;55045;49.410;11.030;2023-05-19T12:59:20;98316.81;;;18.41;76.54
68226;BME280;55045;49.410;11.030;2023-05-19T13:02:54;98334.03;;;18.67;75.85
68226;BME280;55045;49.410;11.030;2023-05-19T13:05:57;98317.75;;;18.62;74.11
68226;BME280;55045;49.410;11.030;2023-05-19T13:09:01;98322.06;;;18.63;75.42
68226;BME280;55045;49.410;11.030;2023-05-19T13:12:06;98323.41;;;18.91;73.17
68226;BME280;55045;49.410;11.030;2023-05-19T13:15:10;98309.91;;;18.74;76.97
68226;BME280;55045;49.410;11.030;2023-05-19T13:18:14;98330.06;;;19.07;71.88
68226;BME280;55045;49.410;11.030;2023-05-19T13:21:17;98305.47;;;18.29;74.63
68226;BME280;55045;49.410;11.030;2023-05-19T13:24:20;98293.16;;;18.63;74.12
68226;BME280;55045;49.410;11.030;2023-05-19T13:27:25;98306.03;;;19.00;74.25
68226;BME280;55045;49.410;11.030;2023-05-19T13:30:29;98295.09;;;18.61;73.86
68226;BME280;55045;49.410;11.030;2023-05-19T13:33:33;98296.28;;;18.68;73.46
68226;BME280;55045;49.410;11.030;2023-05-19T13:36:36;98302.22;;;18.48;73.63
68226;BME280;55045;49.410;11.030;2023-05-19T13:39:40;98287.56;;;18.68;74.13
68226;BME280;55045;49.410;11.030;2023-05-19T13:42:44;98292.69;;;19.03;73.27
68226;BME280;55045;49.410;11.030;2023-05-19T13:45:48;98292.59;;;19.37;72.71
68226;BME280;55045;49.410;11.030;2023-05-19T13:48:51;98297.34;;;18.88;74.66
68226;BME280;55045;49.410;11.030;2023-05-19T13:51:55;98292.34;;;18.63;75.35
68226;BME280;55045;49.410;11.030;2023-05-19T13:54:58;98301.06;;;18.52;75.71
68226;BME280;55045;49.410;11.030;2023-05-19T13:58:03;98303.66;;;18.19;76.52
68226;BME280;55045;49.410;11.030;2023-05-19T14:01:06;98296.25;;;18.24;76.10
68226;BME280;55045;49.410;11.030;2023-05-19T14:04:10;98291.50;;;18.51;76.87
68226;BME280;55045;49.410;11.030;2023-05-19T14:07:14;98284.91;;;18.34;75.60
68226;BME280;55045;49.410;11.030;2023-05-19T14:10:17;98295.28;;;18.36;73.65
68226;BME280;55045;49.410;11.030;2023-05-19T14:13:22;98265.59;;;18.35;73.12
68226;BME280;55045;49.410;11.030;2023-05-19T14:16:35;98286.03;;;18.65;75.11
68226;BME280;55045;49.410;11.030;2023-05-19T14:19:42;98272.75;;;18.56;73.03
68226;BME280;55045;49.410;11.030;2023-05-19T14:22:47;98278.97;;;18.55;73.91
68226;BME280;55045;49.410;11.030;2023-05-19T14:25:51;98275.06;;;18.72;74.13
68226;BME280;55045;49.410;11.030;2023-05-19T14:28:55;98267.88;;;18.74;73.10
68226;BME280;55045;49.410;11.030;2023-05-19T14:31:59;98266.22;;;18.73;71.43
68226;BME280;55045;49.410;11.030;2023-05-19T14:35:04;98265.69;;;18.56;72.93
68226;BME280;55045;49.410;11.030;2023-05-19T14:38:08;98259.97;;;18.62;74.90
68226;BME280;55045;49.410;11.030;2023-05-19T14:41:11;98256.03;;;18.68;72.18
68226;BME280;55045;49.410;11.030;2023-05-19T14:44:16;98263.06;;;19.01;73.09
68226;BME280;55045;49.410;11.030;2023-05-19T14:47:19;98256.38;;;18.86;72.13
68226;BME280;55045;49.410;11.030;2023-05-19T14:50:23;98252.78;;;18.87;70.41
68226;BME280;55045;49.410;11.030;2023-05-19T14:53:28;98242.50;;;18.95;73.40
68226;BME280;55045;49.410;11.030;2023-05-19T14:56:32;98249.44;;;18.96;72.68
68226;BME280;55045;49.410;11.030;2023-05-19T14:59:37;98249.72;;;18.82;71.09
68226;BME280;55045;49.410;11.030;2023-05-19T15:02:40;98163.91;;;18.26;73.09
68226;BME280;55045;49.410;11.030;2023-05-19T15:05:43;98252.06;;;18.96;72.99
68226;BME280;55045;49.410;11.030;2023-05-19T15:08:47;98242.78;;;18.81;72.19
68226;BME280;55045;49.410;11.030;2023-05-19T15:11:50;98246.03;;;18.73;72.34
68226;BME280;55045;49.410;11.030;2023-05-19T15:14:54;98244.22;;;18.85;74.66
68226;BME280;55045;49.410;11.030;2023-05-19T15:17:58;98251.00;;;18.87;71.54
68226;BME280;55045;49.410;11.030;2023-05-19T15:21:01;98255.31;;;18.77;73.30
68226;BME280;55045;49.410;11.030;2023-05-19T15:24:05;98251.59;;;18.57;73.95
68226;BME280;55045;49.410;11.030;2023-05-19T15:27:08;98245.19;;;18.50;75.81
68226;BME280;55045;49.410;11.030;2023-05-19T15:30:13;98236.94;;;18.43;76.12
68226;BME280;55045;49.410;11.030;2023-05-19T15:34:33;98238.47;;;18.46;75.10
68226;BME280;55045;49.410;11.030;2023-05-19T15:37:36;98246.72;;;18.53;75.79
68226;BME280;55045;49.410;11.030;2023-05-19T15:40:40;98246.97;;;18.38;76.33
68226;BME280;55045;49.410;11.030;2023-05-19T15:43:44;98255.44;;;18.53;76.32
68226;BME280;55045;49.410;11.030;2023-05-19T15:46:48;98255.34;;;18.66;77.11
68226;BME280;55045;49.410;11.030;2023-05-19T15:49:53;98256.16;;;18.66;76.69
68226;BME280;55045;49.410;11.030;2023-05-19T15:52:56;98249.13;;;18.33;78.79
68226;BME280;55045;49.410;11.030;2023-05-19T15:55:59;98242.66;;;18.37;78.85
68226;BME280;55045;49.410;11.030;2023-05-19T15:59:10;98245.78;;;18.20;79.66
68226;BME280;55045;49.410;11.030;2023-05-19T16:02:14;98246.81;;;18.06;80.33
68226;BME280;55045;49.410;11.030;2023-05-19T16:05:19;98245.41;;;18.13;81.04
68226;BME280;55045;49.410;11.030;2023-05-19T16:08:23;98232.25;;;17.91;81.08
68226;BME280;55045;49.410;11.030;2023-05-19T16:11:26;98252.31;;;18.03;81.99